sensor_id;sensor_type;location;lat;lon;timestamp;pressure;altitude;pressure_sealevel;temperature;humidity
35577;BME280;21680;52.400;16.920;2024-02-23T00:02:14;98160.73;;;9.02;95.21
35577;BME280;21680;52.400;16.920;2024-02-23T00:04:40;98158.91;;;9.03;95.30
35577;BME280;21680;52.400;16.920;2024-02-23T00:07:05;98152.01;;;9.02;95.20
35577;BME280;21680;52.400;16.920;2024-02-23T00:09:33;98153.10;;;9.02;95.26
35577;BME280;21680;52.400;16.920;2024-02-23T00:12:03;98149.45;;;9.03;95.24
35577;BME280;21680;52.400;16.920;2024-02-23T00:14:29;98154.23;;;9.03;95.23
35577;BME280;21680;52.400;16.920;2024-02-23T00:16:56;98150.55;;;9.04;95.13
35577;BME280;21680;52.400;16.920;2024-02-23T00:19:23;98153.03;;;9.05;95.19
35577;BME280;21680;52.400;16.920;2024-02-23T00:21:49;98156.61;;;9.07;95.29
35577;BME280;21680;52.400;16.920;2024-02-23T00:24:19;98155.16;;;9.07;95.28
35577;BME280;21680;52.400;16.920;2024-02-23T00:26:46;98150.30;;;9.08;95.27
35577;BME280;21680;52.400;16.920;2024-02-23T00:29:12;98151.40;;;9.10;95.30
35577;BME280;21680;52.400;16.920;2024-02-23T00:31:40;98147.73;;;9.11;95.26
35577;BME280;21680;52.400;16.920;2024-02-23T00:34:10;98144.66;;;9.12;95.28
35577;BME280;21680;52.400;16.920;2024-02-23T00:36:44;98144.21;;;9.13;95.28
35577;BME280;21680;52.400;16.920;2024-02-23T00:39:10;98135.88;;;9.13;95.23
35577;BME280;21680;52.400;16.920;2024-02-23T00:41:36;98138.83;;;9.16;95.34
35577;BME280;21680;52.400;16.920;2024-02-23T00:44:05;98138.36;;;9.17;95.26
35577;BME280;21680;52.400;16.920;2024-02-23T00:46:31;98141.45;;;9.16;95.31
35577;BME280;21680;52.400;16.920;2024-02-23T00:48:57;98138.51;;;9.18;95.29
35577;BME280;21680;52.400;16.920;2024-02-23T00:51:25;98136.19;;;9.20;95.30
35577;BME280;21680;52.400;16.920;2024-02-23T00:53:53;98135.63;;;9.20;95.28
35577;BME280;21680;52.400;16.920;2024-02-23T00:56:18;98137.52;;;9.21;95.25
35577;BME280;21680;52.400;16.920;2024-02-23T00:58:44;98136.30;;;9.21;95.33
35577;BME280;21680;52.400;16.920;2024-02-23T01:01:09;98138.20;;;9.24;95.36
35577;BME280;21680;52.400;16.920;2024-02-23T01:03:35;98136.48;;;9.25;95.28
35577;BME280;21680;52.400;16.920;2024-02-23T01:06:00;98139.20;;;9.27;95.30
35577;BME280;21680;52.400;16.920;2024-02-23T01:08:25;98143.22;;;9.28;95.24
35577;BME280;21680;52.400;16.920;2024-02-23T01:10:50;98143.75;;;9.28;95.34
35577;BME280;21680;52.400;16.920;2024-02-23T01:13:16;98145.45;;;9.29;95.27
35577;BME280;21680;52.400;16.920;2024-02-23T01:15:42;98140.40;;;9.30;95.28
35577;BME280;21680;52.400;16.920;2024-02-23T01:18:08;98141.93;;;9.31;95.29
35577;BME280;21680;52.400;16.920;2024-02-23T01:20:34;98140.86;;;9.31;95.33
35577;BME280;21680;52.400;16.920;2024-02-23T01:22:59;98144.32;;;9.32;95.29
35577;BME280;21680;52.400;16.920;2024-02-23T01:25:25;98147.50;;;9.32;95.24
35577;BME280;21680;52.400;16.920;2024-02-23T01:27:50;98147.11;;;9.33;95.34
35577;BME280;21680;52.400;16.920;2024-02-23T01:30:15;98141.69;;;9.34;95.21
35577;BME280;21680;52.400;16.920;2024-02-23T01:32:41;98140.52;;;9.33;95.41
35577;BME280;21680;52.400;16.920;2024-02-23T01:35:08;98140.05;;;9.34;95.41
35577;BME280;21680;52.400;16.920;2024-02-23T01:37:33;98143.57;;;9.35;95.38
35577;BME280;21680;52.400;16.920;2024-02-23T01:40:00;98146.41;;;9.37;95.37
35577;BME280;21680;52.400;16.920;2024-02-23T01:42:26;98149.57;;;9.38;95.45
35577;BME280;21680;52.400;16.920;2024-02-23T01:44:52;98152.91;;;9.38;95.44
35577;BME280;21680;52.400;16.920;2024-02-23T01:47:18;98153.92;;;9.39;95.43
35577;BME280;21680;52.400;16.920;2024-02-23T01:49:45;98157.25;;;9.40;95.38
35577;BME280;21680;52.400;16.920;2024-02-23T01:52:12;98162.52;;;9.41;95.47
35577;BME280;21680;52.400;16.920;2024-02-23T01:54:39;98159.41;;;9.42;95.48
35577;BME280;21680;52.400;16.920;2024-02-23T01:57:04;98160.13;;;9.42;95.39
35577;BME280;21680;52.400;16.920;2024-02-23T01:59:30;98162.05;;;9.42;95.46
35577;BME280;21680;52.400;16.920;2024-02-23T02:01:55;98161.60;;;9.43;95.42
35577;BME280;21680;52.400;16.920;2024-02-23T02:04:21;98154.19;;;9.45;95.58
35577;BME280;21680;52.400;16.920;2024-02-23T02:06:46;98152.55;;;9.45;95.43
35577;BME280;21680;52.400;16.920;2024-02-23T02:09:12;98150.73;;;9.46;95.39
35577;BME280;21680;52.400;16.920;2024-02-23T02:11:47;98152.95;;;9.47;95.48
35577;BME280;21680;52.400;16.920;2024-02-23T02:14:15;98149.92;;;9.47;95.44
35577;BME280;21680;52.400;16.920;2024-02-23T02:16:41;98156.17;;;9.47;95.46
35577;BME280;21680;52.400;16.920;2024-02-23T02:19:06;98153.37;;;9.46;95.44
35577;BME280;21680;52.400;16.920;2024-02-23T02:21:33;98154.14;;;9.45;95.47
35577;BME280;21680;52.400;16.920;2024-02-23T02:23:58;98154.37;;;9.45;95.42
35577;BME280;21680;52.400;16.920;2024-02-23T02:26:24;98153.54;;;9.44;95.44
35577;BME280;21680;52.400;16.920;2024-02-23T02:28:49;98164.29;;;9.43;95.41
35577;BME280;21680;52.400;16.920;2024-02-23T02:31:16;98164.25;;;9.43;95.50
35577;BME280;21680;52.400;16.920;2024-02-23T02:33:41;98164.38;;;9.44;95.49
35577;BME280;21680;52.400;16.920;2024-02-23T02:36:06;98165.25;;;9.44;95.49
35577;BME280;21680;52.400;16.920;2024-02-23T02:38:32;98170.43;;;9.44;95.43
35577;BME280;21680;52.400;16.920;2024-02-23T02:41:01;98169.08;;;9.43;95.44
35577;BME280;21680;52.400;16.920;2024-02-23T02:43:27;98160.98;;;9.42;95.50
35577;BME280;21680;52.400;16.920;2024-02-23T02:45:52;98158.70;;;9.42;95.44
35577;BME280;21680;52.400;16.920;2024-02-23T02:48:18;98154.70;;;9.43;95.51
35577;BME280;21680;52.400;16.920;2024-02-23T02:50:43;98159.77;;;9.42;95.52
35577;BME280;21680;52.400;16.920;2024-02-23T02:53:09;98163.50;;;9.42;95.48
35577;BME280;21680;52.400;16.920;2024-02-23T02:55:36;98170.84;;;9.41;95.44
35577;BME280;21680;52.400;16.920;2024-02-23T02:58:02;98182.77;;;9.41;95.42
35577;BME280;21680;52.400;16.920;2024-02-23T03:00:27;98192.34;;;9.42;95.49
35577;BME280;21680;52.400;16.920;2024-02-23T03:02:53;98189.61;;;9.41;95.51
35577;BME280;21680;52.400;16.920;2024-02-23T03:05:19;98198.38;;;9.42;95.55
35577;BME280;21680;52.400;16.920;2024-02-23T03:07:44;98198.50;;;9.41;95.50
35577;BME280;21680;52.400;16.920;2024-02-23T03:10:10;98202.66;;;9.40;95.47
35577;BME280;21680;52.400;16.920;2024-02-23T03:12:35;98196.92;;;9.40;95.56
35577;BME280;21680;52.400;16.920;2024-02-23T03:15:00;98197.97;;;9.41;95.49
35577;BME280;21680;52.400;16.920;2024-02-23T03:17:27;98202.92;;;9.41;95.60
35577;BME280;21680;52.400;16.920;2024-02-23T03:19:53;98207.49;;;9.42;95.60
35577;BME280;21680;52.400;16.920;2024-02-23T03:22:18;98208.61;;;9.41;95.56
35577;BME280;21680;52.400;16.920;2024-02-23T03:24:43;98216.83;;;9.41;95.55
35577;BME280;21680;52.400;16.920;2024-02-23T03:27:08;98219.59;;;9.40;95.53
35577;BME280;21680;52.400;16.920;2024-02-23T03:29:34;98218.50;;;9.40;95.60
35577;BME280;21680;52.400;16.920;2024-02-23T03:32:00;98219.38;;;9.41;95.54
35577;BME280;21680;52.400;16.920;2024-02-23T03:34:26;98228.86;;;9.42;95.63
35577;BME280;21680;52.400;16.920;2024-02-23T03:36:52;98232.15;;;9.44;95.57
35577;BME280;21680;52.400;16.920;2024-02-23T03:39:18;98234.67;;;9.46;95.58
35577;BME280;21680;52.400;16.920;2024-02-23T03:41:43;98237.63;;;9.49;95.76
35577;BME280;21680;52.400;16.920;2024-02-23T03:44:08;98245.00;;;9.51;95.75
35577;BME280;21680;52.400;16.920;2024-02-23T03:46:33;98241.02;;;9.52;95.65
35577;BME280;21680;52.400;16.920;2024-02-23T03:48:59;98248.55;;;9.53;95.77
35577;BME280;21680;52.400;16.920;2024-02-23T03:51:25;98253.73;;;9.55;95.72
35577;BME280;21680;52.400;16.920;2024-02-23T03:53:50;98259.30;;;9.55;95.56
35577;BME280;21680;52.400;16.920;2024-02-23T03:56:16;98264.02;;;9.56;95.63
35577;BME280;21680;52.400;16.920;2024-02-23T03:58:41;98264.45;;;9.57;95.58
35577;BME280;21680;52.400;16.920;2024-02-23T04:01:06;98270.00;;;9.57;95.58
35577;BME280;21680;52.400;16.920;2024-02-23T04:03:31;98274.80;;;9.57;95.60
35577;BME280;21680;52.400;16.920;2024-02-23T04:05:57;98280.75;;;9.59;95.62
35577;BME280;21680;52.400;16.920;2024-02-23T04:08:22;98289.41;;;9.60;95.61
35577;BME280;21680;52.400;16.920;2024-02-23T04:10:48;98299.52;;;9.60;95.57
35577;BME280;21680;52.400;16.920;2024-02-23T04:13:13;98292.85;;;9.61;95.61
35577;BME280;21680;52.400;16.920;2024-02-23T04:15:43;98303.64;;;9.62;95.66
35577;BME280;21680;52.400;16.920;2024-02-23T04:18:09;98311.84;;;9.62;95.65
35577;BME280;21680;52.400;16.920;2024-02-23T04:20:34;98314.27;;;9.63;95.51
35577;BME280;21680;52.400;16.920;2024-02-23T04:22:59;98308.87;;;9.64;95.68
35577;BME280;21680;52.400;16.920;2024-02-23T04:25:25;98311.72;;;9.64;95.55
35577;BME280;21680;52.400;16.920;2024-02-23T04:27:51;98314.71;;;9.64;95.67
35577;BME280;21680;52.400;16.920;2024-02-23T04:30:16;98319.96;;;9.66;95.60
35577;BME280;21680;52.400;16.920;2024-02-23T04:32:41;98318.98;;;9.67;95.68
35577;BME280;21680;52.400;16.920;2024-02-23T04:35:07;98325.64;;;9.68;95.61
35577;BME280;21680;52.400;16.920;2024-02-23T04:37:33;98328.02;;;9.70;95.63
35577;BME280;21680;52.400;16.920;2024-02-23T04:39:58;98334.50;;;9.71;95.58
35577;BME280;21680;52.400;16.920;2024-02-23T04:42:23;98342.23;;;9.73;95.67
35577;BME280;21680;52.400;16.920;2024-02-23T04:44:48;98348.61;;;9.74;95.57
35577;BME280;21680;52.400;16.920;2024-02-23T04:47:14;98350.85;;;9.74;95.68
35577;BME280;21680;52.400;16.920;2024-02-23T04:49:40;98348.91;;;9.77;95.59
35577;BME280;21680;52.400;16.920;2024-02-23T04:52:05;98351.17;;;9.80;95.65
35577;BME280;21680;52.400;16.920;2024-02-23T04:54:31;98354.98;;;9.81;95.57
35577;BME280;21680;52.400;16.920;2024-02-23T04:56:56;98351.14;;;9.82;95.58
35577;BME280;21680;52.400;16.920;2024-02-23T04:59:22;98356.33;;;9.85;95.48
35577;BME280;21680;52.400;16.920;2024-02-23T05:01:48;98360.55;;;9.85;95.49
35577;BME280;21680;52.400;16.920;2024-02-23T05:04:14;98367.91;;;9.87;95.54
35577;BME280;21680;52.400;16.920;2024-02-23T05:06:39;98369.79;;;9.88;95.35
35577;BME280;21680;52.400;16.920;2024-02-23T05:09:05;98375.55;;;9.90;95.52
35577;BME280;21680;52.400;16.920;2024-02-23T05:11:34;98380.87;;;9.92;95.40
35577;BME280;21680;52.400;16.920;2024-02-23T05:13:59;98385.68;;;9.92;95.42
35577;BME280;21680;52.400;16.920;2024-02-23T05:16:25;98399.13;;;9.94;95.41
35577;BME280;21680;52.400;16.920;2024-02-23T05:18:50;98407.23;;;9.95;95.36
35577;BME280;21680;52.400;16.920;2024-02-23T05:21:15;98407.53;;;9.96;95.35
35577;BME280;21680;52.400;16.920;2024-02-23T05:23:41;98410.87;;;9.96;95.42
35577;BME280;21680;52.400;16.920;2024-02-23T05:26:07;98415.66;;;9.97;95.39
35577;BME280;21680;52.400;16.920;2024-02-23T05:28:34;98424.33;;;9.98;95.47
35577;BME280;21680;52.400;16.920;2024-02-23T05:31:02;98428.35;;;9.99;95.24
35577;BME280;21680;52.400;16.920;2024-02-23T05:33:28;98434.83;;;10.00;95.23
35577;BME280;21680;52.400;16.920;2024-02-23T05:35:54;98444.40;;;10.04;95.44
35577;BME280;21680;52.400;16.920;2024-02-23T05:38:19;98446.64;;;10.07;95.24
35577;BME280;21680;52.400;16.920;2024-02-23T05:40:44;98453.34;;;10.08;95.22
35577;BME280;21680;52.400;16.920;2024-02-23T05:43:10;98458.48;;;10.11;95.22
35577;BME280;21680;52.400;16.920;2024-02-23T05:45:36;98467.71;;;10.12;95.12
35577;BME280;21680;52.400;16.920;2024-02-23T05:48:02;98477.32;;;10.12;95.16
35577;BME280;21680;52.400;16.920;2024-02-23T05:50:27;98483.33;;;10.13;95.04
35577;BME280;21680;52.400;16.920;2024-02-23T05:52:52;98490.73;;;10.14;94.97
35577;BME280;21680;52.400;16.920;2024-02-23T05:55:20;98498.31;;;10.15;95.14
35577;BME280;21680;52.400;16.920;2024-02-23T05:57:45;98494.58;;;10.18;94.96
35577;BME280;21680;52.400;16.920;2024-02-23T06:00:12;98502.79;;;10.20;94.92
35577;BME280;21680;52.400;16.920;2024-02-23T06:02:38;98506.16;;;10.23;94.77
35577;BME280;21680;52.400;16.920;2024-02-23T06:05:04;98511.98;;;10.26;94.72
35577;BME280;21680;52.400;16.920;2024-02-23T06:07:30;98522.76;;;10.30;94.62
35577;BME280;21680;52.400;16.920;2024-02-23T06:09:56;98521.27;;;10.33;94.45
35577;BME280;21680;52.400;16.920;2024-02-23T06:12:22;98526.85;;;10.37;94.62
35577;BME280;21680;52.400;16.920;2024-02-23T06:14:47;98525.13;;;10.40;94.40
35577;BME280;21680;52.400;16.920;2024-02-23T06:17:13;98523.55;;;10.42;94.28
35577;BME280;21680;52.400;16.920;2024-02-23T06:19:38;98525.84;;;10.43;94.15
35577;BME280;21680;52.400;16.920;2024-02-23T06:22:03;98532.39;;;10.44;94.20
35577;BME280;21680;52.400;16.920;2024-02-23T06:24:29;98534.95;;;10.45;94.10
35577;BME280;21680;52.400;16.920;2024-02-23T06:26:54;98538.17;;;10.45;94.01
35577;BME280;21680;52.400;16.920;2024-02-23T06:29:19;98543.91;;;10.45;94.03
35577;BME280;21680;52.400;16.920;2024-02-23T06:31:44;98551.26;;;10.44;93.99
35577;BME280;21680;52.400;16.920;2024-02-23T06:34:14;98563.45;;;10.44;93.75
35577;BME280;21680;52.400;16.920;2024-02-23T06:36:39;98566.30;;;10.44;93.74
35577;BME280;21680;52.400;16.920;2024-02-23T06:39:05;98568.84;;;10.45;93.69
35577;BME280;21680;52.400;16.920;2024-02-23T06:41:30;98575.25;;;10.46;93.58
35577;BME280;21680;52.400;16.920;2024-02-23T06:43:56;98585.13;;;10.45;93.48
35577;BME280;21680;52.400;16.920;2024-02-23T06:46:22;98589.95;;;10.45;93.41
35577;BME280;21680;52.400;16.920;2024-02-23T06:48:47;98593.67;;;10.45;93.27
35577;BME280;21680;52.400;16.920;2024-02-23T06:51:13;98603.45;;;10.46;93.13
35577;BME280;21680;52.400;16.920;2024-02-23T06:53:39;98605.98;;;10.45;93.00
35577;BME280;21680;52.400;16.920;2024-02-23T06:56:04;98615.42;;;10.46;92.76
35577;BME280;21680;52.400;16.920;2024-02-23T06:58:30;98623.06;;;10.44;92.46
35577;BME280;21680;52.400;16.920;2024-02-23T07:00:55;98640.30;;;10.45;92.07
35577;BME280;21680;52.400;16.920;2024-02-23T07:03:20;98653.77;;;10.44;91.90
35577;BME280;21680;52.400;16.920;2024-02-23T07:05:46;98668.67;;;10.45;91.52
35577;BME280;21680;52.400;16.920;2024-02-23T07:08:12;98657.89;;;10.46;91.26
35577;BME280;21680;52.400;16.920;2024-02-23T07:10:38;98663.27;;;10.46;90.89
35577;BME280;21680;52.400;16.920;2024-02-23T07:13:03;98673.52;;;10.45;90.63
35577;BME280;21680;52.400;16.920;2024-02-23T07:15:30;98668.73;;;10.44;90.31
35577;BME280;21680;52.400;16.920;2024-02-23T07:17:57;98667.52;;;10.44;89.99
35577;BME280;21680;52.400;16.920;2024-02-23T07:20:23;98671.53;;;10.43;89.77
35577;BME280;21680;52.400;16.920;2024-02-23T07:22:48;98674.05;;;10.42;89.42
35577;BME280;21680;52.400;16.920;2024-02-23T07:25:17;98670.80;;;10.43;89.20
35577;BME280;21680;52.400;16.920;2024-02-23T07:27:44;98667.46;;;10.42;88.67
35577;BME280;21680;52.400;16.920;2024-02-23T07:30:10;98674.98;;;10.42;88.53
35577;BME280;21680;52.400;16.920;2024-02-23T07:32:36;98682.31;;;10.42;88.18
35577;BME280;21680;52.400;16.920;2024-02-23T07:35:01;98687.24;;;10.40;87.87
35577;BME280;21680;52.400;16.920;2024-02-23T07:37:28;98697.10;;;10.40;87.73
35577;BME280;21680;52.400;16.920;2024-02-23T07:39:54;98705.50;;;10.40;87.53
35577;BME280;21680;52.400;16.920;2024-02-23T07:42:19;98710.20;;;10.37;87.26
35577;BME280;21680;52.400;16.920;2024-02-23T07:44:45;98716.91;;;10.36;87.07
35577;BME280;21680;52.400;16.920;2024-02-23T07:47:11;98725.05;;;10.34;86.88
35577;BME280;21680;52.400;16.920;2024-02-23T07:49:37;98733.77;;;10.35;86.72
35577;BME280;21680;52.400;16.920;2024-02-23T07:52:03;98740.27;;;10.36;86.60
35577;BME280;21680;52.400;16.920;2024-02-23T07:54:28;98738.60;;;10.36;86.36
35577;BME280;21680;52.400;16.920;2024-02-23T07:56:54;98744.75;;;10.38;86.26
35577;BME280;21680;52.400;16.920;2024-02-23T07:59:19;98754.61;;;10.40;86.10
35577;BME280;21680;52.400;16.920;2024-02-23T08:01:44;98757.19;;;10.39;85.83
35577;BME280;21680;52.400;16.920;2024-02-23T08:04:12;98761.65;;;10.39;85.81
35577;BME280;21680;52.400;16.920;2024-02-23T08:06:39;98766.86;;;10.38;85.58
35577;BME280;21680;52.400;16.920;2024-02-23T08:09:04;98779.02;;;10.38;85.29
35577;BME280;21680;52.400;16.920;2024-02-23T08:11:30;98780.05;;;10.36;85.11
35577;BME280;21680;52.400;16.920;2024-02-23T08:13:55;98778.96;;;10.36;85.03
35577;BME280;21680;52.400;16.920;2024-02-23T08:16:26;98780.64;;;10.38;85.06
35577;BME280;21680;52.400;16.920;2024-02-23T08:18:55;98783.05;;;10.39;84.80
35577;BME280;21680;52.400;16.920;2024-02-23T08:21:20;98784.32;;;10.39;84.77
35577;BME280;21680;52.400;16.920;2024-02-23T08:23:46;98794.08;;;10.37;84.50
35577;BME280;21680;52.400;16.920;2024-02-23T08:26:12;98797.47;;;10.32;84.29
35577;BME280;21680;52.400;16.920;2024-02-23T08:28:37;98798.64;;;10.29;84.32
35577;BME280;21680;52.400;16.920;2024-02-23T08:31:04;98801.83;;;10.26;84.14
35577;BME280;21680;52.400;16.920;2024-02-23T08:33:32;98803.45;;;10.24;84.05
35577;BME280;21680;52.400;16.920;2024-02-23T08:35:57;98798.31;;;10.23;83.85
35577;BME280;21680;52.400;16.920;2024-02-23T08:38:23;98802.77;;;10.24;84.00
35577;BME280;21680;52.400;16.920;2024-02-23T08:40:48;98805.16;;;10.25;83.70
35577;BME280;21680;52.400;16.920;2024-02-23T08:43:14;98805.91;;;10.27;83.63
35577;BME280;21680;52.400;16.920;2024-02-23T08:45:40;98812.67;;;10.25;83.57
35577;BME280;21680;52.400;16.920;2024-02-23T08:48:05;98815.89;;;10.27;83.35
35577;BME280;21680;52.400;16.920;2024-02-23T08:50:32;98822.58;;;10.28;83.33
35577;BME280;21680;52.400;16.920;2024-02-23T08:52:57;98827.41;;;10.28;83.06
35577;BME280;21680;52.400;16.920;2024-02-23T08:55:22;98837.45;;;10.28;83.04
35577;BME280;21680;52.400;16.920;2024-02-23T08:57:48;98840.77;;;10.29;82.86
35577;BME280;21680;52.400;16.920;2024-02-23T09:00:14;98856.34;;;10.31;82.75
35577;BME280;21680;52.400;16.920;2024-02-23T09:02:40;98861.83;;;10.29;82.55
35577;BME280;21680;52.400;16.920;2024-02-23T09:05:07;98868.64;;;10.26;82.33
35577;BME280;21680;52.400;16.920;2024-02-23T09:07:33;98874.27;;;10.22;82.07
35577;BME280;21680;52.400;16.920;2024-02-23T09:09:58;98879.45;;;10.19;82.18
35577;BME280;21680;52.400;16.920;2024-02-23T09:12:23;98904.61;;;10.19;82.13
35577;BME280;21680;52.400;16.920;2024-02-23T09:14:49;98912.98;;;10.17;81.89
35577;BME280;21680;52.400;16.920;2024-02-23T09:17:14;98915.72;;;10.13;81.82
35577;BME280;21680;52.400;16.920;2024-02-23T09:19:40;98913.48;;;10.12;81.69
35577;BME280;21680;52.400;16.920;2024-02-23T09:22:05;98917.13;;;10.11;81.53
35577;BME280;21680;52.400;16.920;2024-02-23T09:24:30;98914.75;;;10.09;81.43
35577;BME280;21680;52.400;16.920;2024-02-23T09:26:55;98920.09;;;10.07;81.31
35577;BME280;21680;52.400;16.920;2024-02-23T09:29:21;98921.73;;;10.03;81.09
35577;BME280;21680;52.400;16.920;2024-02-23T09:31:47;98928.75;;;10.03;81.02
35577;BME280;21680;52.400;16.920;2024-02-23T09:34:13;98930.75;;;10.02;80.86
35577;BME280;21680;52.400;16.920;2024-02-23T09:36:38;98934.25;;;10.03;80.89
35577;BME280;21680;52.400;16.920;2024-02-23T09:39:03;98941.30;;;10.07;80.87
35577;BME280;21680;52.400;16.920;2024-02-23T09:41:30;98946.84;;;10.10;80.78
35577;BME280;21680;52.400;16.920;2024-02-23T09:43:59;98955.26;;;10.12;80.72
35577;BME280;21680;52.400;16.920;2024-02-23T09:46:25;98954.48;;;10.10;80.43
35577;BME280;21680;52.400;16.920;2024-02-23T09:48:51;98957.82;;;10.11;80.43
35577;BME280;21680;52.400;16.920;2024-02-23T09:51:16;98964.29;;;10.10;80.26
35577;BME280;21680;52.400;16.920;2024-02-23T09:53:43;98965.98;;;10.09;80.16
35577;BME280;21680;52.400;16.920;2024-02-23T09:56:09;98969.64;;;10.07;80.12
35577;BME280;21680;52.400;16.920;2024-02-23T09:58:39;98980.23;;;10.07;80.00
35577;BME280;21680;52.400;16.920;2024-02-23T10:01:06;98979.46;;;10.05;79.76
35577;BME280;21680;52.400;16.920;2024-02-23T10:03:32;98987.20;;;10.04;79.73
35577;BME280;21680;52.400;16.920;2024-02-23T10:05:57;98989.35;;;10.06;79.77
35577;BME280;21680;52.400;16.920;2024-02-23T10:08:23;98989.17;;;10.09;79.60
35577;BME280;21680;52.400;16.920;2024-02-23T10:10:48;98990.09;;;10.09;79.45
35577;BME280;21680;52.400;16.920;2024-02-23T10:13:20;98988.87;;;10.06;79.22
35577;BME280;21680;52.400;16.920;2024-02-23T10:15:48;98988.54;;;10.03;79.09
35577;BME280;21680;52.400;16.920;2024-02-23T10:18:13;98987.80;;;10.03;79.07
35577;BME280;21680;52.400;16.920;2024-02-23T10:20:40;98996.74;;;10.03;78.95
35577;BME280;21680;52.400;16.920;2024-02-23T10:23:07;99003.70;;;10.03;78.89
35577;BME280;21680;52.400;16.920;2024-02-23T10:25:36;99011.48;;;10.04;78.73
35577;BME280;21680;52.400;16.920;2024-02-23T10:28:03;99017.52;;;10.02;78.58
35577;BME280;21680;52.400;16.920;2024-02-23T10:30:29;99021.86;;;10.01;78.58
35577;BME280;21680;52.400;16.920;2024-02-23T10:32:58;99022.13;;;10.02;78.57
35577;BME280;21680;52.400;16.920;2024-02-23T10:35:25;99014.56;;;10.05;78.36
35577;BME280;21680;52.400;16.920;2024-02-23T10:37:51;99017.69;;;10.10;78.28
35577;BME280;21680;52.400;16.920;2024-02-23T10:40:19;99017.62;;;10.11;78.01
35577;BME280;21680;52.400;16.920;2024-02-23T10:42:46;99025.22;;;10.09;77.72
35577;BME280;21680;52.400;16.920;2024-02-23T10:45:20;99030.41;;;10.03;77.51
35577;BME280;21680;52.400;16.920;2024-02-23T10:47:50;99012.80;;;10.00;77.41
35577;BME280;21680;52.400;16.920;2024-02-23T10:50:17;99023.39;;;9.99;77.36
35577;BME280;21680;52.400;16.920;2024-02-23T10:52:45;99028.67;;;9.97;77.20
35577;BME280;21680;52.400;16.920;2024-02-23T10:55:10;99031.50;;;9.98;76.91
35577;BME280;21680;52.400;16.920;2024-02-23T10:57:36;99033.33;;;9.97;76.74
35577;BME280;21680;52.400;16.920;2024-02-23T11:00:03;99032.19;;;9.98;76.65
35577;BME280;21680;52.400;16.920;2024-02-23T11:03:01;99032.89;;;10.01;76.60
35577;BME280;21680;52.400;16.920;2024-02-23T11:05:29;99042.45;;;10.05;76.44
35577;BME280;21680;52.400;16.920;2024-02-23T11:07:58;99040.35;;;10.04;76.06
35577;BME280;21680;52.400;16.920;2024-02-23T11:10:23;99050.00;;;10.02;75.84
35577;BME280;21680;52.400;16.920;2024-02-23T11:13:07;99048.10;;;9.98;75.63
35577;BME280;21680;52.400;16.920;2024-02-23T11:15:33;99048.41;;;9.96;75.52
35577;BME280;21680;52.400;16.920;2024-02-23T11:18:21;99058.23;;;9.98;75.52
35577;BME280;21680;52.400;16.920;2024-02-23T11:20:53;99057.14;;;9.99;75.07
35577;BME280;21680;52.400;16.920;2024-02-23T11:23:20;99053.49;;;9.97;74.88
35577;BME280;21680;52.400;16.920;2024-02-23T11:26:09;99043.58;;;9.96;74.83
35577;BME280;21680;52.400;16.920;2024-02-23T11:28:51;99047.13;;;9.96;74.72
35577;BME280;21680;52.400;16.920;2024-02-23T11:31:22;99045.30;;;9.97;74.46
35577;BME280;21680;52.400;16.920;2024-02-23T11:33:53;99044.15;;;9.96;74.52
35577;BME280;21680;52.400;16.920;2024-02-23T11:36:38;99042.08;;;9.94;74.30
35577;BME280;21680;52.400;16.920;2024-02-23T11:39:03;99048.36;;;9.94;74.44
35577;BME280;21680;52.400;16.920;2024-02-23T11:41:29;99043.95;;;9.93;74.29
35577;BME280;21680;52.400;16.920;2024-02-23T11:43:55;99046.82;;;9.93;74.12
35577;BME280;21680;52.400;16.920;2024-02-23T11:46:22;99044.45;;;9.94;74.02
35577;BME280;21680;52.400;16.920;2024-02-23T11:48:48;99045.06;;;9.93;73.96
35577;BME280;21680;52.400;16.920;2024-02-23T11:51:20;99043.54;;;9.91;73.91
35577;BME280;21680;52.400;16.920;2024-02-23T11:53:50;99050.90;;;9.88;73.65
35577;BME280;21680;52.400;16.920;2024-02-23T11:56:15;99049.48;;;9.83;73.41
35577;BME280;21680;52.400;16.920;2024-02-23T11:58:41;99053.71;;;9.78;73.43
35577;BME280;21680;52.400;16.920;2024-02-23T12:01:07;99052.20;;;9.76;73.47
35577;BME280;21680;52.400;16.920;2024-02-23T12:03:33;99055.63;;;9.79;73.51
35577;BME280;21680;52.400;16.920;2024-02-23T12:06:02;99062.16;;;9.80;73.25
35577;BME280;21680;52.400;16.920;2024-02-23T12:08:31;99064.83;;;9.77;73.31
35577;BME280;21680;52.400;16.920;2024-02-23T12:11:03;99063.89;;;9.78;73.19
35577;BME280;21680;52.400;16.920;2024-02-23T12:13:29;99067.56;;;9.76;73.17
35577;BME280;21680;52.400;16.920;2024-02-23T12:15:54;99079.15;;;9.76;73.15
35577;BME280;21680;52.400;16.920;2024-02-23T12:18:23;99079.48;;;9.74;73.05
35577;BME280;21680;52.400;16.920;2024-02-23T12:20:51;99091.66;;;9.73;72.87
35577;BME280;21680;52.400;16.920;2024-02-23T12:23:16;99107.41;;;9.72;73.01
35577;BME280;21680;52.400;16.920;2024-02-23T12:25:52;99113.95;;;9.73;72.97
35577;BME280;21680;52.400;16.920;2024-02-23T12:28:20;99126.16;;;9.75;72.91
35577;BME280;21680;52.400;16.920;2024-02-23T12:30:45;99122.46;;;9.74;72.80
35577;BME280;21680;52.400;16.920;2024-02-23T12:33:15;99123.35;;;9.74;72.75
35577;BME280;21680;52.400;16.920;2024-02-23T12:35:40;99125.65;;;9.77;72.85
35577;BME280;21680;52.400;16.920;2024-02-23T12:38:06;99132.09;;;9.80;72.70
35577;BME280;21680;52.400;16.920;2024-02-23T12:40:31;99137.80;;;9.80;72.64
35577;BME280;21680;52.400;16.920;2024-02-23T12:42:56;99139.52;;;9.81;72.61
35577;BME280;21680;52.400;16.920;2024-02-23T12:45:22;99150.13;;;9.82;72.68
35577;BME280;21680;52.400;16.920;2024-02-23T12:47:47;99148.23;;;9.81;72.55
35577;BME280;21680;52.400;16.920;2024-02-23T12:50:12;99151.27;;;9.84;72.57
35577;BME280;21680;52.400;16.920;2024-02-23T12:52:38;99148.05;;;9.89;72.59